createdAt,value
2019-05-09T00:02:03.692Z,11.0
2019-05-09T00:07:03.932Z,11.2
2019-05-09T00:12:04.101Z,11.2
2019-05-09T00:17:04.107Z,11.5
2019-05-09T00:22:03.724Z,11.8
2019-05-09T00:27:04.240Z,11.9
2019-05-09T00:32:03.853Z,11.6
2019-05-09T00:37:03.466Z,11.4
2019-05-09T00:42:01.420Z,11.2
2019-05-09T00:47:01.493Z,11.4
2019-05-09T00:52:03.947Z,11.6
2019-05-09T00:57:03.571Z,11.8
2019-05-09T01:02:04.395Z,12.3
2019-05-09T01:07:03.913Z,12.8
2019-05-09T01:12:03.732Z,13.2
2019-05-09T01:17:01.486Z,13.2
2019-05-09T01:22:04.217Z,13.2
2019-05-09T01:27:04.076Z,13.2
2019-05-09T01:32:03.818Z,13.9
2019-05-09T01:37:03.809Z,13.8
2019-05-09T01:42:03.693Z,14.3
2019-05-09T01:47:04.262Z,14.2
2019-05-09T01:52:06.405Z,14.8
2019-05-09T01:57:06.488Z,14.2
2019-05-09T02:02:09.277Z,14.2
2019-05-09T02:07:04.405Z,13.8
2019-05-09T02:12:06.411Z,14.2
2019-05-09T02:17:06.544Z,13.8
2019-05-09T02:22:03.826Z,13.5
2019-05-09T02:27:06.518Z,13.3
2019-05-09T02:33:01.464Z,14.4
2019-05-09T02:38:01.476Z,14.7
2019-05-09T02:48:01.469Z,15.7
2019-05-09T02:53:01.474Z,16.2
2019-05-09T02:58:01.416Z,15.0
2019-05-09T03:03:09.793Z,14.8
2019-05-09T03:08:01.513Z,14.4
2019-05-09T03:13:09.839Z,14.0
2019-05-09T03:18:09.758Z,13.2
2019-05-09T03:23:01.505Z,13.6
2019-05-09T03:28:01.425Z,13.6
2019-05-09T03:33:01.602Z,13.8
2019-05-09T03:38:01.380Z,14.2
2019-05-09T03:43:01.467Z,14.0
2019-05-09T03:48:01.833Z,14.3
2019-05-09T03:53:01.600Z,15.4
2019-05-09T03:58:01.417Z,16.1
2019-05-09T04:03:01.478Z,16.6
2019-05-09T04:09:01.379Z,18.3
2019-05-09T04:14:01.474Z,18.9
2019-05-09T04:19:01.372Z,18.7
2019-05-09T04:24:01.399Z,18.6
2019-05-09T04:29:01.412Z,18.8
2019-05-09T04:34:01.532Z,19.5
2019-05-09T04:39:01.601Z,20.5
2019-05-09T04:44:20.819Z,21.5
2019-05-09T04:49:03.010Z,22.7
2019-05-09T04:59:01.406Z,24.3
2019-05-09T05:04:01.422Z,24.1
2019-05-09T05:09:01.415Z,24.4
2019-05-09T05:14:01.459Z,24.8
2019-05-09T05:19:01.406Z,23.8
2019-05-09T05:29:01.405Z,24.0
2019-05-09T05:34:04.321Z,23.8
2019-05-09T05:39:01.434Z,23.3
2019-05-09T05:44:01.498Z,23.7
2019-05-09T05:54:01.931Z,23.6
2019-05-09T05:59:01.433Z,23.5
2019-05-09T06:04:01.444Z,23.2
2019-05-09T06:09:01.433Z,22.4
2019-05-09T06:14:12.201Z,22.0
2019-05-09T06:19:01.426Z,21.6
2019-05-09T06:24:01.499Z,20.7
2019-05-09T06:29:01.406Z,20.3
2019-05-09T06:34:01.567Z,20.5
2019-05-09T06:39:01.566Z,20.3
2019-05-09T06:54:01.456Z,20.5
2019-05-09T06:59:01.402Z,20.2
2019-05-09T07:04:01.497Z,18.9
2019-05-09T07:09:08.795Z,18.1
2019-05-09T07:14:01.511Z,17.0
2019-05-09T07:24:01.509Z,15.8
2019-05-09T07:29:01.451Z,15.7
2019-05-09T07:34:01.497Z,15.3
2019-05-09T07:39:01.525Z,14.5
2019-05-09T07:44:01.473Z,14.3
2019-05-09T07:49:09.025Z,14.2
2019-05-09T07:59:01.356Z,14.0
2019-05-09T08:04:01.567Z,13.8
2019-05-09T08:14:01.499Z,13.7
2019-05-09T08:19:01.449Z,13.7
2019-05-09T08:39:08.668Z,16.1
2019-05-09T08:44:01.451Z,16.6
2019-05-09T08:49:01.724Z,17.0
2019-05-09T08:54:01.853Z,16.6
2019-05-09T08:59:02.754Z,15.8
2019-05-09T09:04:02.065Z,15.6
2019-05-09T09:09:01.506Z,15.8
2019-05-09T09:14:01.542Z,15.8
2019-05-09T09:19:01.452Z,16.6
2019-05-09T09:24:01.510Z,17.5
2019-05-09T09:29:01.478Z,17.9
2019-05-09T09:34:01.478Z,17.3
2019-05-09T09:39:03.468Z,16.9
2019-05-09T09:44:01.400Z,15.2
2019-05-09T09:49:01.409Z,13.8
2019-05-09T09:54:01.478Z,12.1
2019-05-09T10:09:01.406Z,9.1
2019-05-09T10:14:01.461Z,8.5
2019-05-09T10:24:01.519Z,9.2
2019-05-09T10:34:01.499Z,9.8
2019-05-09T10:39:01.500Z,10.0
2019-05-09T10:49:01.432Z,8.5
2019-05-09T11:04:01.544Z,7.5
2019-05-09T11:09:01.372Z,7.7
2019-05-09T11:14:01.472Z,8.1
2019-05-09T11:19:01.440Z,8.3
2019-05-09T11:24:01.469Z,8.3
2019-05-09T11:29:01.430Z,8.4
2019-05-09T11:39:01.888Z,8.6
2019-05-09T11:44:01.643Z,8.6
2019-05-09T11:49:01.443Z,8.6
2019-05-09T11:59:01.398Z,8.2
2019-05-09T12:04:01.609Z,8.1
2019-05-09T12:09:02.206Z,7.8
2019-05-09T12:14:01.536Z,7.4
2019-05-09T12:19:01.403Z,7.3
2019-05-09T12:24:01.471Z,6.4
2019-05-09T12:29:01.471Z,6.4
2019-05-09T12:34:01.877Z,6.2
2019-05-09T12:44:01.540Z,5.6
2019-05-09T12:54:01.529Z,4.8
2019-05-09T13:00:01.453Z,4.4
2019-05-09T13:05:01.554Z,4.1
2019-05-09T13:10:01.412Z,3.8
2019-05-09T13:15:01.600Z,3.6
2019-05-09T13:20:01.472Z,3.8
2019-05-09T13:35:01.515Z,3.8
2019-05-09T13:40:01.534Z,4.0
2019-05-09T13:50:09.299Z,4.4
2019-05-09T13:55:01.649Z,4.3
2019-05-09T14:05:01.702Z,4.0
2019-05-09T14:10:01.449Z,3.7
2019-05-09T14:15:02.494Z,3.2
2019-05-09T14:20:01.945Z,2.8
2019-05-09T14:25:01.460Z,2.4
2019-05-09T14:30:01.687Z,2.3
2019-05-09T15:05:01.575Z,4.8
2019-05-09T15:10:01.455Z,5.1
2019-05-09T15:30:01.464Z,5.2
2019-05-09T15:35:01.455Z,5.0
2019-05-09T15:40:01.501Z,5.2
2019-05-09T15:45:01.503Z,5.4
2019-05-09T15:55:01.409Z,6.6
2019-05-09T16:00:01.555Z,7.5
2019-05-09T16:05:01.402Z,7.7
2019-05-09T16:10:01.465Z,8.1
2019-05-09T16:15:01.401Z,8.0
2019-05-09T16:20:01.509Z,7.8
2019-05-09T16:35:02.389Z,4.9
2019-05-09T16:40:01.431Z,3.8
2019-05-09T16:45:01.544Z,2.6
2019-05-09T16:50:01.482Z,2.4
2019-05-09T16:55:01.473Z,2.4
2019-05-09T17:00:03.448Z,2.6
2019-05-09T17:05:01.479Z,2.8
2019-05-09T17:10:01.414Z,2.6
2019-05-09T17:15:01.501Z,2.2
2019-05-09T17:20:01.429Z,2.0
2019-05-09T17:25:01.764Z,1.8
2019-05-09T17:30:01.474Z,1.8
2019-05-09T17:35:01.749Z,2.2
2019-05-09T17:40:01.409Z,2.6
2019-05-09T17:50:01.450Z,3.6
2019-05-09T17:55:01.575Z,4.0
2019-05-09T18:00:01.644Z,4.4
2019-05-09T18:05:01.541Z,4.6
2019-05-09T18:10:01.403Z,4.8
2019-05-09T18:15:01.532Z,4.8
2019-05-09T18:20:01.410Z,4.6
2019-05-09T18:25:01.466Z,4.6
2019-05-09T18:30:01.404Z,4.9
2019-05-09T18:35:01.469Z,5.0
2019-05-09T18:40:01.408Z,5.2
2019-05-09T18:45:01.538Z,5.6
2019-05-09T18:50:01.498Z,6.0
2019-05-09T18:55:01.589Z,5.9
2019-05-09T19:00:01.438Z,5.8
2019-05-09T19:20:01.415Z,7.7
2019-05-09T19:25:01.408Z,8.4
2019-05-09T19:30:01.378Z,8.8
2019-05-09T19:35:01.474Z,8.8
2019-05-09T19:40:01.430Z,8.9
2019-05-09T19:45:01.508Z,8.9
2019-05-09T19:51:01.402Z,8.9
2019-05-09T19:56:01.529Z,9.2
2019-05-09T20:01:02.459Z,9.8
2019-05-09T20:06:01.470Z,9.5
2019-05-09T20:11:01.408Z,9.7
2019-05-09T20:16:01.543Z,10.0
2019-05-09T20:21:01.477Z,10.0
2019-05-09T20:26:01.481Z,9.7
2019-05-09T20:31:01.415Z,10.5
2019-05-09T20:36:01.548Z,10.2
2019-05-09T20:46:01.479Z,10.1
2019-05-09T20:51:01.431Z,10.1
2019-05-09T20:56:06.479Z,9.7
2019-05-09T21:01:01.403Z,10.1
2019-05-09T21:06:01.596Z,10.4
2019-05-09T21:11:01.406Z,10.3
2019-05-09T21:16:01.407Z,10.7
2019-05-09T21:21:01.413Z,11.3
2019-05-09T21:26:01.637Z,11.4
2019-05-09T21:31:01.380Z,11.2
2019-05-09T21:36:02.497Z,11.0
2019-05-09T21:41:01.403Z,10.8
2019-05-09T21:46:01.526Z,9.8
2019-05-09T21:51:01.425Z,9.5
2019-05-09T21:56:01.474Z,10.0
2019-05-09T22:01:01.411Z,10.3
2019-05-09T22:11:01.412Z,11.6
2019-05-09T22:21:01.415Z,12.2
2019-05-09T22:26:01.493Z,12.8
2019-05-09T22:31:01.408Z,12.7
2019-05-09T22:36:01.407Z,13.0
2019-05-09T22:41:06.421Z,12.9
2019-05-09T22:46:01.474Z,13.5
2019-05-09T22:51:01.377Z,13.4
2019-05-09T22:56:06.543Z,14.2
2019-05-09T23:11:06.550Z,14.1
2019-05-09T23:16:06.486Z,14.3
2019-05-09T23:21:02.296Z,13.8
2019-05-09T23:26:01.541Z,13.9
2019-05-09T23:31:01.404Z,13.9
2019-05-09T23:36:01.596Z,13.9
2019-05-09T23:41:01.426Z,13.8
2019-05-09T23:46:01.626Z,13.8
2019-05-09T23:51:01.470Z,13.9
2019-05-09T23:56:01.472Z,14.2
